Taylor Fork

This weather station provides wind speed, gust or max wind speed, and wind direction at 9460 ft. near Pika Point above Sunlight Basin.  

This data can be used with temperature and precipitation data from the Carrot Basin SNOTEL site. If the data below is not displayed or up to date, view data here.

This weather station was purchased by the Friends of the Avalanche Center.

Elevation
9460ft
Jump to table bottom
Date Time Temperature
deg F
RH, % Wind Speed Wind Gust Wind Direction
03/20/17 10:05 28.8 100 9 13 SW - 204
03/20/17 09:05 27.7 99 10 14 S - 180
03/20/17 08:05 26.8 99 9 14 S - 181
03/20/17 07:05 26.4 99 8 15 SW - 209
03/20/17 06:05 26.4 99 8 16 SW - 215
03/20/17 05:05 27.6 99 9 17 SW - 223
03/20/17 04:05 27.4 99 9 15 SW - 216
03/20/17 03:05 27.9 100 10 17 SW - 230
03/20/17 02:05 27.7 100 11 17 SW - 227
03/20/17 01:05 28.1 100 13 20 SW - 234
03/20/17 00:05 28.1 100 14 24 W - 253
03/19/17 23:05 28.6 100 11 20 SW - 240
03/19/17 22:05 28.5 100 14 20 SW - 236
03/19/17 21:05 28.6 100 15 27 SW - 234
03/19/17 20:05 29.0 100 14 24 SW - 232
03/19/17 19:05 29.0 100 17 27 SW - 236
03/19/17 18:05 29.7 100 18 32 SW - 230
03/19/17 17:05 29.9 100 19 31 SW - 234
03/19/17 16:05 29.7 100 20 31 SW - 232
03/19/17 15:05 29.8 100 22 35 SW - 229
03/19/17 14:05 30.4 100 21 36 SW - 227
03/19/17 13:05 30.4 100 22 39 SW - 225
03/19/17 12:05 29.6 99 20 32 SW - 220
03/19/17 11:05 29.7 99 16 29 SW - 223
03/19/17 10:05 29.8 99 17 29 SW - 216
03/19/17 09:05 28.9 99 16 26 SW - 219
03/19/17 08:05 28.8 99 13 23 SW - 229
03/19/17 07:05 29.1 99 17 28 SW - 230
03/19/17 06:05 29.4 99 15 23 SW - 222
03/19/17 05:05 29.4 98 17 29 SW - 230
03/19/17 04:05 29.5 98 17 27 SW - 236
03/19/17 03:05 29.9 98 15 25 SW - 232
03/19/17 02:05 30.0 90 17 29 SW - 232
03/19/17 01:05 33.7 75 18 30 SW - 241
03/19/17 00:05 34.4 76 18 32 SW - 233
03/18/17 23:05 35.2 71 21 40 SW - 234
03/18/17 22:05 35.8 69 23 37 SW - 240
03/18/17 21:05 36.3 67 24 41 SW - 241
03/18/17 20:05 36.2 63 24 45 SW - 241
03/18/17 19:05 37.1 61 28 43 SW - 241
03/18/17 18:05 37.8 66 27 43 SW - 240
03/18/17 17:05 37.8 64 26 45 SW - 241
03/18/17 16:05 38.7 60 27 48 SW - 237
03/18/17 15:05 39.0 57 27 47 SW - 211
03/18/17 14:05 40.2 54 24 41 S - 199
03/18/17 13:05 40.2 54 19 36 S - 197
03/18/17 12:05 40.3 54 20 34 S - 202
03/18/17 11:05 40.1 55 21 32 S - 190
03/18/17 10:05 38.7 57 19 32 S - 201
03/18/17 09:05 37.4 62 17 29 S - 170
https://datagarrison.com/users/300034012539980/300234010341360/temp/300234010341360_live.txt